createdAt,value
2023-11-15T00:01:40.071Z,14.65
2023-11-15T00:04:11.273Z,22.45
2023-11-15T00:06:42.617Z,23.05
2023-11-15T00:09:13.680Z,26.70
2023-11-15T00:11:43.893Z,23.45
2023-11-15T00:14:14.384Z,18.88
2023-11-15T00:16:44.329Z,19.35
2023-11-15T00:19:17.179Z,18.98
2023-11-15T00:21:48.098Z,16.92
2023-11-15T00:24:18.548Z,15.85
2023-11-15T00:26:49.629Z,15.25
2023-11-15T00:29:20.207Z,14.18
2023-11-15T00:31:51.627Z,12.60
2023-11-15T00:34:23.811Z,11.60
2023-11-15T00:36:58.944Z,8.73
2023-11-15T00:39:31.584Z,7.28
2023-11-15T00:42:03.841Z,7.47
2023-11-15T00:44:53.515Z,6.72
2023-11-15T00:47:24.804Z,6.90
2023-11-15T00:49:57.001Z,7.53
2023-11-15T00:52:29.042Z,8.63
2023-11-15T00:54:59.446Z,7.80
2023-11-15T00:57:30.841Z,7.88
2023-11-15T01:00:01.281Z,8.07
2023-11-15T01:02:36.396Z,7.95
2023-11-15T01:05:08.183Z,7.68
2023-11-15T01:07:41.559Z,7.53
2023-11-15T01:10:13.613Z,7.40
2023-11-15T01:12:44.794Z,7.35
2023-11-15T01:15:16.124Z,8.25
2023-11-15T01:17:50.079Z,8.38
2023-11-15T01:20:20.712Z,8.80
2023-11-15T01:22:52.294Z,7.85
2023-11-15T01:25:23.173Z,7.68
2023-11-15T01:27:54.014Z,8.07
2023-11-15T01:30:25.081Z,7.78
2023-11-15T01:32:57.804Z,7.80
2023-11-15T01:35:29.010Z,7.47
2023-11-15T01:38:00.123Z,7.68
2023-11-15T01:40:37.175Z,8.48
2023-11-15T01:43:09.131Z,8.40
2023-11-15T01:45:41.129Z,8.55
2023-11-15T01:48:12.581Z,9.23
2023-11-15T01:50:42.881Z,8.15
2023-11-15T01:53:16.465Z,8.00
2023-11-15T01:55:48.989Z,7.10
2023-11-15T01:58:19.806Z,7.20
2023-11-15T02:00:52.066Z,7.70
2023-11-15T02:03:23.813Z,7.82
2023-11-15T02:05:57.042Z,7.10
2023-11-15T02:08:30.013Z,8.20
2023-11-15T02:11:01.312Z,14.70
2023-11-15T02:13:31.872Z,17.77
2023-11-15T02:16:03.250Z,19.17
2023-11-15T02:18:34.972Z,18.10
2023-11-15T02:21:05.981Z,16.08
2023-11-15T02:23:48.109Z,16.20
2023-11-15T02:26:18.625Z,16.05
2023-11-15T02:28:49.540Z,13.30
2023-11-15T02:31:20.139Z,11.68
2023-11-15T02:33:50.724Z,12.27
2023-11-15T02:36:22.508Z,16.17
2023-11-15T02:38:52.674Z,15.85
2023-11-15T02:41:23.155Z,16.58
2023-11-15T02:43:54.208Z,13.77
2023-11-15T02:46:25.221Z,13.45
2023-11-15T02:48:55.811Z,13.90
2023-11-15T02:51:26.905Z,13.05
2023-11-15T02:53:58.153Z,14.18
2023-11-15T02:56:28.863Z,13.10
2023-11-15T02:58:58.959Z,12.45
2023-11-15T03:01:29.075Z,11.85
2023-11-15T03:04:01.722Z,11.60
2023-11-15T03:06:33.193Z,11.60
2023-11-15T03:09:03.511Z,16.98
2023-11-15T03:11:33.862Z,30.98
2023-11-15T03:14:05.316Z,25.60
2023-11-15T03:16:36.503Z,21.15
2023-11-15T03:19:06.791Z,20.80
2023-11-15T03:21:36.851Z,20.80
2023-11-15T03:24:07.362Z,20.30
2023-11-15T03:26:38.931Z,18.65
2023-11-15T03:29:10.376Z,33.67
2023-11-15T03:31:41.676Z,31.88
2023-11-15T03:34:13.539Z,32.50
2023-11-15T03:36:45.404Z,28.00
2023-11-15T03:39:18.727Z,28.77
2023-11-15T03:41:49.376Z,21.67
2023-11-15T03:44:19.726Z,19.42
2023-11-15T03:46:51.091Z,20.73
2023-11-15T03:49:22.899Z,19.70
2023-11-15T03:51:54.670Z,16.23
2023-11-15T03:54:26.098Z,12.75
2023-11-15T03:56:58.222Z,12.45
2023-11-15T03:59:29.197Z,10.98
2023-11-15T04:02:01.225Z,9.90
2023-11-15T04:04:32.730Z,9.38
2023-11-15T04:07:06.142Z,9.43
2023-11-15T04:09:37.273Z,9.65
2023-11-15T04:12:11.463Z,38.85
2023-11-15T04:14:42.260Z,39.67
2023-11-15T04:17:13.398Z,40.75
2023-11-15T04:19:44.296Z,36.28
2023-11-15T04:22:17.270Z,36.60
2023-11-15T04:24:48.704Z,33.70
2023-11-15T04:27:19.991Z,30.10
2023-11-15T04:29:50.861Z,30.67
2023-11-15T04:32:21.774Z,27.42
2023-11-15T04:34:53.061Z,24.70
2023-11-15T04:37:23.620Z,19.52
2023-11-15T04:39:55.495Z,18.90
2023-11-15T04:42:27.332Z,18.85
2023-11-15T04:44:57.482Z,20.17
2023-11-15T04:47:29.193Z,18.20
2023-11-15T04:50:00.385Z,17.80
2023-11-15T04:52:30.760Z,15.40
2023-11-15T04:55:00.916Z,16.15
2023-11-15T04:57:32.854Z,16.48
2023-11-15T05:00:03.255Z,18.63
2023-11-15T05:02:34.339Z,20.58
2023-11-15T05:05:05.701Z,22.38
2023-11-15T05:07:40.055Z,18.25
2023-11-15T05:10:12.026Z,18.13
2023-11-15T05:12:44.663Z,17.33
2023-11-15T05:15:15.726Z,17.55
2023-11-15T05:17:47.533Z,15.80
2023-11-15T05:20:19.179Z,16.95
2023-11-15T05:22:50.813Z,16.63
2023-11-15T05:25:22.049Z,15.82
2023-11-15T05:27:54.072Z,14.75
2023-11-15T05:30:25.180Z,15.15
2023-11-15T05:32:57.225Z,14.20
2023-11-15T05:35:28.625Z,15.63
2023-11-15T05:38:01.107Z,14.15
2023-11-15T05:40:32.524Z,15.02
2023-11-15T05:43:03.018Z,15.15
2023-11-15T05:45:34.390Z,15.77
2023-11-15T05:48:06.558Z,15.23
2023-11-15T05:50:37.872Z,14.35
2023-11-15T05:53:08.630Z,12.75
2023-11-15T05:55:38.798Z,15.43
2023-11-15T05:58:09.188Z,15.70
2023-11-15T06:00:40.628Z,14.23
2023-11-15T06:03:11.815Z,15.70
2023-11-15T06:05:42.804Z,13.85
2023-11-15T06:08:13.073Z,14.02
2023-11-15T06:10:44.713Z,14.10
2023-11-15T06:16:05.139Z,14.40
2023-11-15T06:18:35.942Z,14.75
2023-11-15T06:21:07.476Z,15.23
2023-11-15T06:23:39.077Z,15.40
2023-11-15T06:26:14.481Z,13.32
2023-11-15T06:28:48.372Z,13.88
2023-11-15T06:31:22.236Z,14.45
2023-11-15T06:33:53.542Z,14.38
2023-11-15T06:36:23.517Z,13.43
2023-11-15T06:38:53.766Z,12.10
2023-11-15T06:41:25.333Z,10.57
2023-11-15T06:43:55.990Z,12.02
2023-11-15T06:46:26.897Z,10.95
2023-11-15T06:48:57.811Z,12.93
2023-11-15T06:51:28.031Z,11.63
2023-11-15T06:53:59.493Z,12.93
2023-11-15T06:56:29.706Z,14.25
2023-11-15T06:59:00.074Z,14.73
2023-11-15T07:01:31.173Z,13.07
2023-11-15T07:04:02.420Z,14.75
2023-11-15T07:06:33.114Z,14.10
2023-11-15T07:09:05.009Z,14.60
2023-11-15T07:11:36.437Z,15.27
2023-11-15T07:14:10.759Z,14.15
2023-11-15T07:16:47.785Z,14.77
2023-11-15T07:19:19.245Z,14.30
2023-11-15T07:21:50.647Z,14.88
2023-11-15T07:24:23.509Z,13.93
2023-11-15T07:26:54.957Z,14.18
2023-11-15T07:29:25.316Z,13.68
2023-11-15T07:31:56.681Z,13.43
2023-11-15T07:34:27.768Z,12.45
2023-11-15T07:37:03.022Z,12.30
2023-11-15T07:42:03.654Z,11.23
2023-11-15T07:44:35.107Z,11.98
2023-11-15T07:47:06.036Z,11.80
2023-11-15T07:49:37.262Z,12.30
2023-11-15T07:52:08.333Z,12.23
2023-11-15T07:54:39.592Z,11.70
2023-11-15T07:57:10.415Z,11.80
2023-11-15T07:59:40.964Z,15.55
2023-11-15T08:02:11.373Z,15.73
2023-11-15T08:04:42.803Z,15.15
2023-11-15T08:07:16.473Z,14.23
2023-11-15T08:09:50.151Z,11.45
2023-11-15T08:12:21.094Z,11.10
2023-11-15T08:14:51.361Z,10.30
2023-11-15T08:17:23.022Z,9.80
2023-11-15T08:19:54.467Z,10.82
2023-11-15T08:22:26.076Z,10.43
2023-11-15T08:24:58.692Z,10.20
2023-11-15T08:27:29.743Z,10.50
2023-11-15T08:30:00.029Z,10.80
2023-11-15T08:32:32.356Z,10.27
2023-11-15T08:35:03.044Z,12.48
2023-11-15T08:37:35.316Z,11.20
2023-11-15T08:40:19.221Z,13.35
2023-11-15T08:43:01.443Z,14.18
2023-11-15T08:45:32.212Z,13.77
2023-11-15T08:48:07.654Z,16.77
2023-11-15T08:50:39.878Z,16.40
2023-11-15T08:53:13.398Z,15.38
2023-11-15T08:55:47.429Z,16.10
2023-11-15T08:58:22.196Z,20.88
2023-11-15T09:00:54.207Z,19.08
2023-11-15T09:03:24.965Z,17.30
2023-11-15T09:05:55.744Z,17.67
2023-11-15T09:08:27.587Z,17.45
2023-11-15T09:10:58.956Z,14.38
2023-11-15T09:13:30.923Z,16.30
2023-11-15T09:16:01.605Z,16.00
2023-11-15T09:18:35.153Z,15.68
2023-11-15T09:21:07.777Z,13.07
2023-11-15T09:23:44.573Z,12.18
2023-11-15T09:26:22.961Z,11.57
2023-11-15T09:28:57.462Z,9.80
2023-11-15T09:31:27.751Z,10.38
2023-11-15T09:33:59.489Z,8.85
2023-11-15T09:36:30.971Z,11.20
2023-11-15T09:39:01.696Z,13.57
2023-11-15T09:41:33.684Z,11.50
2023-11-15T09:44:12.645Z,8.77
2023-11-15T09:46:44.847Z,9.57
2023-11-15T09:49:20.328Z,12.68
2023-11-15T09:51:51.447Z,13.05
2023-11-15T09:54:24.784Z,14.80
2023-11-15T09:56:57.155Z,8.55
2023-11-15T09:59:30.141Z,8.70
2023-11-15T10:02:01.350Z,8.45
2023-11-15T10:04:32.827Z,9.52
2023-11-15T10:07:06.641Z,8.15
2023-11-15T10:09:42.317Z,8.30
2023-11-15T10:12:13.457Z,8.57
2023-11-15T10:14:58.382Z,8.48
2023-11-15T10:17:47.748Z,8.55
2023-11-15T10:20:28.355Z,9.15
2023-11-15T10:23:02.885Z,9.07
2023-11-15T10:25:35.236Z,9.43
2023-11-15T10:28:10.103Z,14.82
2023-11-15T10:30:42.203Z,16.20
2023-11-15T10:33:15.212Z,10.95
2023-11-15T10:35:46.755Z,9.80
2023-11-15T10:38:25.715Z,16.63
2023-11-15T10:40:57.033Z,15.75
2023-11-15T10:43:27.636Z,12.95
2023-11-15T10:46:03.013Z,14.23
2023-11-15T10:48:40.693Z,13.88
2023-11-15T10:51:16.409Z,15.27
2023-11-15T10:53:50.918Z,11.27
2023-11-15T10:56:23.637Z,7.03
2023-11-15T10:58:55.452Z,9.27
2023-11-15T11:01:29.531Z,9.73
2023-11-15T11:04:01.990Z,10.10
2023-11-15T11:07:00.230Z,10.20
2023-11-15T11:09:50.540Z,6.97
2023-11-15T11:12:26.359Z,5.47
2023-11-15T11:15:25.772Z,7.63
2023-11-15T11:18:29.883Z,7.07
2023-11-15T11:21:04.925Z,5.72
2023-11-15T11:23:36.624Z,5.53
2023-11-15T11:26:40.362Z,5.95
2023-11-15T11:29:12.103Z,7.70
2023-11-15T11:31:43.614Z,7.55
2023-11-15T11:34:21.505Z,9.70
2023-11-15T11:39:50.259Z,9.63
2023-11-15T11:42:30.888Z,7.65
2023-11-15T11:45:02.860Z,8.68
2023-11-15T11:47:33.855Z,7.70
2023-11-15T11:50:05.104Z,5.75
2023-11-15T11:52:38.576Z,9.27
2023-11-15T11:55:12.436Z,7.97
2023-11-15T11:57:43.698Z,5.72
2023-11-15T12:00:19.600Z,8.07
2023-11-15T12:03:01.208Z,6.78
2023-11-15T12:05:36.719Z,6.65
2023-11-15T12:08:07.131Z,6.50
2023-11-15T12:10:38.080Z,7.68
2023-11-15T12:13:13.459Z,6.25
2023-11-15T12:15:45.571Z,7.20
2023-11-15T12:18:19.153Z,8.45
2023-11-15T12:20:53.816Z,7.50
2023-11-15T12:23:24.332Z,6.50
2023-11-15T12:25:56.018Z,6.38
2023-11-15T12:28:33.728Z,5.55
2023-11-15T12:31:06.084Z,5.13
2023-11-15T12:33:37.563Z,5.32
2023-11-15T12:36:10.136Z,5.93
2023-11-15T12:39:00.618Z,6.55
2023-11-15T12:41:31.859Z,5.47
2023-11-15T12:44:08.127Z,7.00
2023-11-15T12:46:43.545Z,4.80
2023-11-15T12:49:18.211Z,5.28
2023-11-15T12:51:49.653Z,6.85
2023-11-15T12:54:20.358Z,6.72
2023-11-15T12:57:15.492Z,6.30
2023-11-15T12:59:51.535Z,7.50
2023-11-15T13:02:34.052Z,6.40
2023-11-15T13:05:09.278Z,7.82
2023-11-15T13:07:40.080Z,7.55
2023-11-15T13:10:11.006Z,8.10
2023-11-15T13:12:41.696Z,6.25
2023-11-15T13:15:19.767Z,7.75
2023-11-15T13:17:52.008Z,7.70
2023-11-15T13:20:23.688Z,8.02
2023-11-15T13:22:55.143Z,7.28
2023-11-15T13:25:25.794Z,6.60
2023-11-15T13:27:56.828Z,6.85
2023-11-15T13:30:28.858Z,6.35
2023-11-15T13:33:00.767Z,7.45
2023-11-15T13:35:32.805Z,6.70
2023-11-15T13:38:04.671Z,7.32
2023-11-15T13:40:37.474Z,5.35
2023-11-15T13:43:09.519Z,4.82
2023-11-15T13:45:41.592Z,5.00
2023-11-15T13:48:13.376Z,4.35
2023-11-15T13:50:45.837Z,6.20
2023-11-15T13:53:16.553Z,6.75
2023-11-15T13:55:47.297Z,5.63
2023-11-15T13:58:18.698Z,6.45
2023-11-15T14:00:55.815Z,6.35
2023-11-15T14:03:29.522Z,5.40
2023-11-15T14:06:03.293Z,7.47
2023-11-15T14:08:51.044Z,6.97
2023-11-15T14:11:32.169Z,5.10
2023-11-15T14:14:04.565Z,5.07
2023-11-15T14:16:36.899Z,7.18
2023-11-15T14:19:12.066Z,6.10
2023-11-15T14:21:43.711Z,6.85
2023-11-15T14:24:15.340Z,6.40
2023-11-15T14:26:45.605Z,7.07
2023-11-15T14:29:15.764Z,8.07
2023-11-15T14:31:46.913Z,6.97
2023-11-15T14:34:17.703Z,6.10
2023-11-15T14:36:48.089Z,7.05
2023-11-15T14:39:22.275Z,6.13
2023-11-15T14:41:52.862Z,6.03
2023-11-15T14:44:24.818Z,6.25
2023-11-15T14:46:56.776Z,5.47
2023-11-15T14:49:28.912Z,6.85
2023-11-15T14:52:10.374Z,6.35
2023-11-15T14:54:48.863Z,8.43
2023-11-15T14:57:23.227Z,6.45
2023-11-15T14:59:54.858Z,6.75
2023-11-15T15:02:25.838Z,6.63
2023-11-15T15:04:57.243Z,6.72
2023-11-15T15:07:27.955Z,4.70
2023-11-15T15:09:59.843Z,5.22
2023-11-15T15:12:30.122Z,5.72
2023-11-15T15:15:00.769Z,5.57
2023-11-15T15:17:32.454Z,6.38
2023-11-15T15:20:05.112Z,5.35
2023-11-15T15:22:36.419Z,5.65
2023-11-15T15:25:14.494Z,5.28
2023-11-15T15:27:46.142Z,5.93
2023-11-15T15:30:20.834Z,5.43
2023-11-15T15:32:52.604Z,4.82
2023-11-15T15:35:25.114Z,5.15
2023-11-15T15:37:56.556Z,5.13
2023-11-15T15:40:32.979Z,8.20
2023-11-15T15:43:03.683Z,7.47
2023-11-15T15:45:35.051Z,8.30
2023-11-15T15:48:07.994Z,6.60
2023-11-15T15:50:39.128Z,8.32
2023-11-15T15:53:09.312Z,6.78
2023-11-15T15:55:40.135Z,10.18
2023-11-15T15:58:10.490Z,7.45
2023-11-15T16:00:43.625Z,8.68
2023-11-15T16:03:14.626Z,6.72
2023-11-15T16:05:44.869Z,6.60
2023-11-15T16:08:15.300Z,7.70
2023-11-15T16:10:46.165Z,8.90
2023-11-15T16:13:17.036Z,11.73
2023-11-15T16:15:47.606Z,12.30
2023-11-15T16:18:19.077Z,13.25
2023-11-15T16:20:49.557Z,8.25
2023-11-15T16:23:20.500Z,8.02
2023-11-15T16:25:53.634Z,8.82
2023-11-15T16:28:25.274Z,9.57
2023-11-15T16:30:56.190Z,10.40
2023-11-15T16:33:26.503Z,11.57
2023-11-15T16:35:57.115Z,10.85
2023-11-15T16:38:27.833Z,10.95
2023-11-15T16:40:58.366Z,8.57
2023-11-15T16:43:30.644Z,13.23
2023-11-15T16:46:01.971Z,10.77
2023-11-15T16:48:36.694Z,10.35
2023-11-15T16:51:07.698Z,10.73
2023-11-15T16:53:39.018Z,9.27
2023-11-15T16:56:09.958Z,10.82
2023-11-15T16:58:40.279Z,8.48
2023-11-15T17:01:11.235Z,10.00
2023-11-15T17:03:43.439Z,8.05
2023-11-15T17:06:17.824Z,10.80
2023-11-15T17:08:50.294Z,9.93
2023-11-15T17:11:22.183Z,7.15
2023-11-15T17:13:54.082Z,9.15
2023-11-15T17:16:25.883Z,6.85
2023-11-15T17:18:58.302Z,7.75
2023-11-15T17:21:30.025Z,7.88
2023-11-15T17:24:00.752Z,7.22
2023-11-15T17:26:35.052Z,8.63
2023-11-15T17:29:06.305Z,6.35
2023-11-15T17:31:36.737Z,8.50
2023-11-15T17:34:10.187Z,7.63
2023-11-15T17:36:42.843Z,8.57
2023-11-15T17:39:18.810Z,7.47
2023-11-15T17:41:49.711Z,6.95
2023-11-15T17:44:24.382Z,6.50
2023-11-15T17:46:55.547Z,8.30
2023-11-15T17:49:26.621Z,7.03
2023-11-15T17:51:57.487Z,9.20
2023-11-15T17:54:29.277Z,10.57
2023-11-15T17:57:01.211Z,8.80
2023-11-15T17:59:33.892Z,8.15
2023-11-15T18:02:06.709Z,9.13
2023-11-15T18:04:38.889Z,9.57
2023-11-15T18:07:09.954Z,10.73
2023-11-15T18:09:42.866Z,8.50
2023-11-15T18:12:17.530Z,7.03
2023-11-15T18:14:50.874Z,7.20
2023-11-15T18:17:22.365Z,7.65
2023-11-15T18:19:52.669Z,7.65
2023-11-15T18:22:24.190Z,22.95
2023-11-15T18:24:57.518Z,15.45
2023-11-15T18:27:30.028Z,14.40
2023-11-15T18:30:02.789Z,18.17
2023-11-15T18:32:33.450Z,17.60
2023-11-15T18:35:03.916Z,21.75
2023-11-15T18:37:35.397Z,24.40
2023-11-15T18:40:15.789Z,16.35
2023-11-15T18:42:48.570Z,17.10
2023-11-15T18:45:21.082Z,16.67
2023-11-15T18:47:55.410Z,14.90
2023-11-15T18:50:30.384Z,18.23
2023-11-15T18:53:03.424Z,21.00
2023-11-15T18:55:45.482Z,21.15
2023-11-15T18:58:35.098Z,20.58
2023-11-15T19:03:54.093Z,14.38
2023-11-15T19:09:10.739Z,16.30
2023-11-15T19:11:42.164Z,15.88
2023-11-15T19:14:19.792Z,16.45
2023-11-15T19:16:58.383Z,15.40
2023-11-15T19:19:39.096Z,16.52
2023-11-15T19:22:13.419Z,16.60
2023-11-15T19:24:45.500Z,17.95
2023-11-15T19:27:17.488Z,26.83
2023-11-15T19:29:52.620Z,22.38
2023-11-15T19:32:24.861Z,16.70
2023-11-15T19:35:00.823Z,13.85
2023-11-15T19:37:38.093Z,11.68
2023-11-15T19:40:14.099Z,11.00
2023-11-15T19:45:19.880Z,9.80
2023-11-15T19:48:04.256Z,10.00
2023-11-15T19:50:35.841Z,9.70
2023-11-15T19:53:15.563Z,12.07
2023-11-15T19:55:48.064Z,14.05
2023-11-15T19:58:20.698Z,16.95
2023-11-15T20:00:51.225Z,14.40
2023-11-15T20:03:24.291Z,15.02
2023-11-15T20:05:55.344Z,13.05
2023-11-15T20:08:28.400Z,12.02
2023-11-15T20:10:59.947Z,11.43
2023-11-15T20:13:36.729Z,12.20
2023-11-15T20:16:09.563Z,11.93
2023-11-15T20:21:31.655Z,10.90
2023-11-15T20:24:05.980Z,11.13
2023-11-15T20:26:40.451Z,11.82
2023-11-15T20:29:14.234Z,12.02
2023-11-15T20:31:48.074Z,11.75
2023-11-15T20:34:22.687Z,12.90
2023-11-15T20:36:56.450Z,13.68
2023-11-15T20:39:32.348Z,13.75
2023-11-15T20:42:11.209Z,12.15
2023-11-15T20:44:49.298Z,12.75
2023-11-15T20:47:22.407Z,12.10
2023-11-15T20:49:57.253Z,15.35
2023-11-15T20:52:28.460Z,14.38
2023-11-15T20:55:08.497Z,13.93
2023-11-15T20:57:40.715Z,13.50
2023-11-15T21:00:30.235Z,13.52
2023-11-15T21:03:04.942Z,13.20
2023-11-15T21:05:53.161Z,12.27
2023-11-15T21:08:29.899Z,12.00
2023-11-15T21:13:56.527Z,10.57
2023-11-15T21:16:32.907Z,10.90
2023-11-15T21:19:11.595Z,17.58
2023-11-15T21:21:53.414Z,12.85
2023-11-15T21:24:25.990Z,12.57
2023-11-15T21:26:59.612Z,12.70
2023-11-15T21:29:30.240Z,25.85
2023-11-15T21:32:03.145Z,27.23
2023-11-15T21:34:34.894Z,23.52
2023-11-15T21:37:13.581Z,19.17
2023-11-15T21:39:51.162Z,15.02
2023-11-15T21:42:22.629Z,13.38
2023-11-15T21:44:55.876Z,13.10
2023-11-15T21:47:26.779Z,12.05
2023-11-15T21:49:58.629Z,10.80
2023-11-15T21:52:29.652Z,17.17
2023-11-15T21:55:00.944Z,22.55
2023-11-15T21:57:32.884Z,14.00
2023-11-15T22:00:05.312Z,14.35
2023-11-15T22:02:39.069Z,12.70
2023-11-15T22:05:09.970Z,11.63
2023-11-15T22:07:41.949Z,12.88
2023-11-15T22:10:16.233Z,12.70
2023-11-15T22:12:47.587Z,10.05
2023-11-15T22:15:21.232Z,9.82
2023-11-15T22:17:53.328Z,9.25
2023-11-15T22:20:25.019Z,16.25
2023-11-15T22:22:56.407Z,13.00
2023-11-15T22:25:29.646Z,9.70
2023-11-15T22:28:00.928Z,9.10
2023-11-15T22:30:34.150Z,7.82
2023-11-15T22:33:05.775Z,9.80
2023-11-15T22:35:39.021Z,8.00
2023-11-15T22:38:11.577Z,8.38
2023-11-15T22:40:43.869Z,7.70
2023-11-15T22:43:16.685Z,7.45
2023-11-15T22:45:48.221Z,8.43
2023-11-15T22:48:19.575Z,13.95
2023-11-15T22:50:51.590Z,12.43
2023-11-15T22:53:25.107Z,10.77
2023-11-15T22:55:56.713Z,12.98
2023-11-15T22:58:28.349Z,11.10
2023-11-15T23:01:00.390Z,8.60
2023-11-15T23:03:35.644Z,8.27
2023-11-15T23:06:08.220Z,7.15
2023-11-15T23:08:52.990Z,7.07
2023-11-15T23:11:29.263Z,6.38
2023-11-15T23:14:00.894Z,7.05
2023-11-15T23:16:31.986Z,7.90
2023-11-15T23:19:05.324Z,7.68
2023-11-15T23:21:35.781Z,7.40
2023-11-15T23:24:08.048Z,8.32
2023-11-15T23:26:39.781Z,8.50
2023-11-15T23:29:14.420Z,8.38
2023-11-15T23:31:47.636Z,6.82
2023-11-15T23:34:21.352Z,7.22
2023-11-15T23:36:53.997Z,7.90
2023-11-15T23:39:27.184Z,8.38
2023-11-15T23:41:58.392Z,8.57
2023-11-15T23:44:30.945Z,9.15
2023-11-15T23:47:02.463Z,8.45
2023-11-15T23:49:34.124Z,9.43
2023-11-15T23:52:08.667Z,10.07
2023-11-15T23:54:39.927Z,10.43
2023-11-15T23:57:10.871Z,10.77
2023-11-15T23:59:43.313Z,11.98
